sensor_id;sensor_type;location;lat;lon;timestamp;pressure;altitude;pressure_sealevel;temperature;humidity
47726;BME280;33483;48.294;16.388;2023-04-22T00:00:29;99366.47;;;6.41;100.00
47726;BME280;33483;48.294;16.388;2023-04-22T00:03:15;99368.97;;;6.39;100.00
47726;BME280;33483;48.294;16.388;2023-04-22T00:05:43;99367.97;;;6.37;100.00
47726;BME280;33483;48.294;16.388;2023-04-22T00:08:11;99360.47;;;6.32;100.00
47726;BME280;33483;48.294;16.388;2023-04-22T00:10:44;99359.97;;;6.28;100.00
47726;BME280;33483;48.294;16.388;2023-04-22T00:13:12;99364.75;;;6.27;100.00
47726;BME280;33483;48.294;16.388;2023-04-22T00:15:41;99367.50;;;6.22;100.00
47726;BME280;33483;48.294;16.388;2023-04-22T00:18:13;99368.50;;;6.19;100.00
47726;BME280;33483;48.294;16.388;2023-04-22T00:20:44;99368.00;;;6.15;100.00
47726;BME280;33483;48.294;16.388;2023-04-22T00:23:13;99372.25;;;6.10;100.00
47726;BME280;33483;48.294;16.388;2023-04-22T00:25:41;99371.00;;;6.06;100.00
47726;BME280;33483;48.294;16.388;2023-04-22T00:28:08;99367.75;;;6.07;100.00
47726;BME280;33483;48.294;16.388;2023-04-22T00:30:36;99361.50;;;6.01;100.00
47726;BME280;33483;48.294;16.388;2023-04-22T00:33:04;99363.75;;;5.97;100.00
47726;BME280;33483;48.294;16.388;2023-04-22T00:35:34;99369.75;;;5.90;100.00
47726;BME280;33483;48.294;16.388;2023-04-22T00:38:01;99364.75;;;5.83;100.00
47726;BME280;33483;48.294;16.388;2023-04-22T00:40:29;99367.97;;;5.82;100.00
47726;BME280;33483;48.294;16.388;2023-04-22T00:42:57;99366.97;;;5.79;100.00
47726;BME280;33483;48.294;16.388;2023-04-22T00:45:27;99363.47;;;5.73;100.00
47726;BME280;33483;48.294;16.388;2023-04-22T00:47:57;99365.97;;;5.71;100.00
47726;BME280;33483;48.294;16.388;2023-04-22T00:50:25;99355.72;;;5.66;100.00
47726;BME280;33483;48.294;16.388;2023-04-22T00:52:54;99355.47;;;5.64;100.00
47726;BME280;33483;48.294;16.388;2023-04-22T00:55:22;99355.19;;;5.62;100.00
47726;BME280;33483;48.294;16.388;2023-04-22T00:57:50;99360.94;;;5.58;100.00
47726;BME280;33483;48.294;16.388;2023-04-22T01:00:18;99357.22;;;5.56;100.00
47726;BME280;33483;48.294;16.388;2023-04-22T01:02:53;99360.94;;;5.53;100.00
47726;BME280;33483;48.294;16.388;2023-04-22T01:05:25;99358.69;;;5.51;100.00
47726;BME280;33483;48.294;16.388;2023-04-22T01:07:54;99357.69;;;5.49;100.00
47726;BME280;33483;48.294;16.388;2023-04-22T01:10:22;99356.94;;;5.48;100.00
47726;BME280;33483;48.294;16.388;2023-04-22T01:12:53;99358.66;;;5.46;100.00
47726;BME280;33483;48.294;16.388;2023-04-22T01:15:24;99358.44;;;5.44;100.00
47726;BME280;33483;48.294;16.388;2023-04-22T01:17:57;99358.19;;;5.42;100.00
47726;BME280;33483;48.294;16.388;2023-04-22T01:20:30;99359.91;;;5.39;100.00
47726;BME280;33483;48.294;16.388;2023-04-22T01:23:01;99360.41;;;5.38;100.00
47726;BME280;33483;48.294;16.388;2023-04-22T01:25:39;99364.16;;;5.35;100.00
47726;BME280;33483;48.294;16.388;2023-04-22T01:28:16;99357.16;;;5.34;100.00
47726;BME280;33483;48.294;16.388;2023-04-22T01:30:43;99358.66;;;5.29;100.00
47726;BME280;33483;48.294;16.388;2023-04-22T01:33:15;99361.63;;;5.26;100.00
47726;BME280;33483;48.294;16.388;2023-04-22T01:35:45;99353.88;;;5.24;100.00
47726;BME280;33483;48.294;16.388;2023-04-22T01:38:19;99359.63;;;5.21;100.00
47726;BME280;33483;48.294;16.388;2023-04-22T01:40:50;99359.88;;;5.17;100.00
47726;BME280;33483;48.294;16.388;2023-04-22T01:43:20;99351.59;;;5.12;100.00
47726;BME280;33483;48.294;16.388;2023-04-22T01:45:50;99358.81;;;5.09;100.00
47726;BME280;33483;48.294;16.388;2023-04-22T01:48:19;99359.06;;;5.06;100.00
47726;BME280;33483;48.294;16.388;2023-04-22T01:50:49;99356.06;;;5.04;100.00
47726;BME280;33483;48.294;16.388;2023-04-22T01:53:25;99353.56;;;5.00;100.00
47726;BME280;33483;48.294;16.388;2023-04-22T01:55:52;99351.28;;;4.99;100.00
47726;BME280;33483;48.294;16.388;2023-04-22T01:58:23;99347.81;;;4.98;100.00
47726;BME280;33483;48.294;16.388;2023-04-22T02:00:51;99342.28;;;4.93;100.00
47726;BME280;33483;48.294;16.388;2023-04-22T02:03:23;99346.03;;;4.90;100.00
47726;BME280;33483;48.294;16.388;2023-04-22T02:05:56;99345.50;;;4.86;100.00
47726;BME280;33483;48.294;16.388;2023-04-22T02:08:28;99350.78;;;4.89;100.00
47726;BME280;33483;48.294;16.388;2023-04-22T02:10:58;99345.28;;;4.89;100.00
47726;BME280;33483;48.294;16.388;2023-04-22T02:13:36;99347.72;;;4.82;100.00
47726;BME280;33483;48.294;16.388;2023-04-22T02:16:09;99341.75;;;4.78;100.00
47726;BME280;33483;48.294;16.388;2023-04-22T02:18:46;99347.69;;;4.76;100.00
47726;BME280;33483;48.294;16.388;2023-04-22T02:21:15;99344.50;;;4.78;100.00
47726;BME280;33483;48.294;16.388;2023-04-22T02:23:46;99343.97;;;4.74;100.00
47726;BME280;33483;48.294;16.388;2023-04-22T02:26:25;99343.19;;;4.68;100.00
47726;BME280;33483;48.294;16.388;2023-04-22T02:29:05;99340.66;;;4.64;100.00
47726;BME280;33483;48.294;16.388;2023-04-22T02:31:37;99343.91;;;4.63;100.00
47726;BME280;33483;48.294;16.388;2023-04-22T02:34:10;99332.66;;;4.60;100.00
47726;BME280;33483;48.294;16.388;2023-04-22T02:36:38;99335.13;;;4.58;100.00
47726;BME280;33483;48.294;16.388;2023-04-22T02:39:12;99331.91;;;4.54;100.00
47726;BME280;33483;48.294;16.388;2023-04-22T02:41:41;99342.63;;;4.52;100.00
47726;BME280;33483;48.294;16.388;2023-04-22T02:44:13;99335.38;;;4.49;100.00
47726;BME280;33483;48.294;16.388;2023-04-22T02:46:42;99336.31;;;4.46;100.00
47726;BME280;33483;48.294;16.388;2023-04-22T02:49:11;99337.59;;;4.45;100.00
47726;BME280;33483;48.294;16.388;2023-04-22T02:51:40;99338.84;;;4.44;100.00
47726;BME280;33483;48.294;16.388;2023-04-22T02:54:20;99337.31;;;4.43;100.00
47726;BME280;33483;48.294;16.388;2023-04-22T02:56:48;99337.31;;;4.43;100.00
47726;BME280;33483;48.294;16.388;2023-04-22T02:59:18;99335.06;;;4.42;100.00
47726;BME280;33483;48.294;16.388;2023-04-22T03:01:45;99343.78;;;4.40;100.00
47726;BME280;33483;48.294;16.388;2023-04-22T03:04:28;99331.56;;;4.41;100.00
47726;BME280;33483;48.294;16.388;2023-04-22T03:06:58;99337.28;;;4.38;100.00
47726;BME280;33483;48.294;16.388;2023-04-22T03:09:29;99342.78;;;4.38;100.00
47726;BME280;33483;48.294;16.388;2023-04-22T03:12:01;99344.03;;;4.37;100.00
47726;BME280;33483;48.294;16.388;2023-04-22T03:14:36;99340.53;;;4.36;100.00
47726;BME280;33483;48.294;16.388;2023-04-22T03:17:04;99343.75;;;4.35;100.00
47726;BME280;33483;48.294;16.388;2023-04-22T03:19:35;99347.50;;;4.32;100.00
47726;BME280;33483;48.294;16.388;2023-04-22T03:22:05;99345.69;;;4.29;100.00
47726;BME280;33483;48.294;16.388;2023-04-22T03:24:33;99338.72;;;4.28;100.00
47726;BME280;33483;48.294;16.388;2023-04-22T03:27:09;99343.19;;;4.25;100.00
47726;BME280;33483;48.294;16.388;2023-04-22T03:29:39;99341.69;;;4.24;100.00
47726;BME280;33483;48.294;16.388;2023-04-22T03:32:07;99340.94;;;4.24;100.00
47726;BME280;33483;48.294;16.388;2023-04-22T03:34:44;99350.41;;;4.23;100.00
47726;BME280;33483;48.294;16.388;2023-04-22T03:37:15;99342.41;;;4.19;100.00
47726;BME280;33483;48.294;16.388;2023-04-22T03:39:45;99340.66;;;4.16;100.00
47726;BME280;33483;48.294;16.388;2023-04-22T03:42:17;99346.13;;;4.16;100.00
47726;BME280;33483;48.294;16.388;2023-04-22T03:44:47;99349.09;;;4.13;100.00
47726;BME280;33483;48.294;16.388;2023-04-22T03:47:29;99348.84;;;4.11;100.00
47726;BME280;33483;48.294;16.388;2023-04-22T03:50:08;99352.81;;;4.10;100.00
47726;BME280;33483;48.294;16.388;2023-04-22T03:52:43;99354.53;;;4.07;100.00
47726;BME280;33483;48.294;16.388;2023-04-22T03:55:17;99348.31;;;4.07;100.00
47726;BME280;33483;48.294;16.388;2023-04-22T03:57:48;99354.53;;;4.07;100.00
47726;BME280;33483;48.294;16.388;2023-04-22T04:00:16;99347.31;;;4.10;100.00
47726;BME280;33483;48.294;16.388;2023-04-22T04:02:53;99349.38;;;4.15;100.00
47726;BME280;33483;48.294;16.388;2023-04-22T04:05:26;99354.63;;;4.18;100.00
47726;BME280;33483;48.294;16.388;2023-04-22T04:07:54;99347.41;;;4.21;100.00
47726;BME280;33483;48.294;16.388;2023-04-22T04:10:24;99341.69;;;4.24;100.00
47726;BME280;33483;48.294;16.388;2023-04-22T04:12:53;99346.47;;;4.29;100.00
47726;BME280;33483;48.294;16.388;2023-04-22T04:15:23;99349.50;;;4.37;100.00
47726;BME280;33483;48.294;16.388;2023-04-22T04:17:54;99351.25;;;4.82;100.00
47726;BME280;33483;48.294;16.388;2023-04-22T04:20:26;99360.13;;;5.19;100.00
47726;BME280;33483;48.294;16.388;2023-04-22T04:23:05;99354.88;;;5.16;100.00
47726;BME280;33483;48.294;16.388;2023-04-22T04:25:35;99347.84;;;5.15;100.00
47726;BME280;33483;48.294;16.388;2023-04-22T04:28:11;99353.34;;;5.15;100.00
47726;BME280;33483;48.294;16.388;2023-04-22T04:30:44;99352.38;;;5.29;100.00
47726;BME280;33483;48.294;16.388;2023-04-22T04:33:11;99357.41;;;5.36;100.00
47726;BME280;33483;48.294;16.388;2023-04-22T04:35:42;99357.41;;;5.41;100.00
47726;BME280;33483;48.294;16.388;2023-04-22T04:38:18;99359.66;;;5.43;100.00
47726;BME280;33483;48.294;16.388;2023-04-22T04:40:52;99358.44;;;5.49;100.00
47726;BME280;33483;48.294;16.388;2023-04-22T04:43:27;99351.22;;;5.57;100.00
47726;BME280;33483;48.294;16.388;2023-04-22T04:46:06;99358.72;;;5.79;100.00
47726;BME280;33483;48.294;16.388;2023-04-22T04:48:39;99354.75;;;5.91;100.00
47726;BME280;33483;48.294;16.388;2023-04-22T04:51:09;99357.25;;;6.00;100.00
47726;BME280;33483;48.294;16.388;2023-04-22T04:53:46;99363.25;;;6.15;100.00
47726;BME280;33483;48.294;16.388;2023-04-22T04:56:16;99363.47;;;6.45;100.00
47726;BME280;33483;48.294;16.388;2023-04-22T04:58:47;99365.91;;;6.65;100.00
47726;BME280;33483;48.294;16.388;2023-04-22T05:01:23;99373.84;;;6.91;100.00
47726;BME280;33483;48.294;16.388;2023-04-22T05:03:53;99376.53;;;7.07;100.00
47726;BME280;33483;48.294;16.388;2023-04-22T05:06:22;99378.50;;;7.18;100.00
47726;BME280;33483;48.294;16.388;2023-04-22T05:09:00;99379.16;;;7.35;100.00
47726;BME280;33483;48.294;16.388;2023-04-22T05:11:33;99380.53;;;7.58;100.00
47726;BME280;33483;48.294;16.388;2023-04-22T05:14:10;99381.66;;;7.79;100.00
47726;BME280;33483;48.294;16.388;2023-04-22T05:16:41;99389.75;;;8.01;100.00
47726;BME280;33483;48.294;16.388;2023-04-22T05:19:13;99388.09;;;8.22;100.00
47726;BME280;33483;48.294;16.388;2023-04-22T05:21:42;99384.22;;;8.36;100.00
47726;BME280;33483;48.294;16.388;2023-04-22T05:24:13;99377.09;;;8.46;100.00
47726;BME280;33483;48.294;16.388;2023-04-22T05:26:40;99380.72;;;8.60;100.00
47726;BME280;33483;48.294;16.388;2023-04-22T05:29:15;99389.34;;;8.99;100.00
47726;BME280;33483;48.294;16.388;2023-04-22T05:31:42;99387.72;;;9.28;100.00
47726;BME280;33483;48.294;16.388;2023-04-22T05:34:11;99395.53;;;9.29;100.00
47726;BME280;33483;48.294;16.388;2023-04-22T05:36:39;99398.66;;;9.39;100.00
47726;BME280;33483;48.294;16.388;2023-04-22T05:39:11;99403.00;;;9.53;100.00
47726;BME280;33483;48.294;16.388;2023-04-22T05:41:39;99400.88;;;9.77;100.00
47726;BME280;33483;48.294;16.388;2023-04-22T05:44:10;99398.34;;;9.79;100.00
47726;BME280;33483;48.294;16.388;2023-04-22T05:46:40;99399.22;;;9.87;100.00
47726;BME280;33483;48.294;16.388;2023-04-22T05:49:08;99403.97;;;10.24;100.00
47726;BME280;33483;48.294;16.388;2023-04-22T05:52:17;99411.94;;;10.72;100.00
47726;BME280;33483;48.294;16.388;2023-04-22T05:54:57;99411.50;;;10.68;100.00
47726;BME280;33483;48.294;16.388;2023-04-22T05:57:27;99417.59;;;10.67;100.00
47726;BME280;33483;48.294;16.388;2023-04-22T05:59:57;99418.25;;;10.86;100.00
47726;BME280;33483;48.294;16.388;2023-04-22T06:02:27;99415.25;;;11.36;100.00
47726;BME280;33483;48.294;16.388;2023-04-22T06:04:56;99414.88;;;11.66;100.00
47726;BME280;33483;48.294;16.388;2023-04-22T06:07:24;99413.13;;;11.76;100.00
47726;BME280;33483;48.294;16.388;2023-04-22T06:09:51;99420.66;;;11.68;100.00
47726;BME280;33483;48.294;16.388;2023-04-22T06:12:31;99416.66;;;11.63;100.00
47726;BME280;33483;48.294;16.388;2023-04-22T06:14:59;99419.72;;;11.39;100.00
47726;BME280;33483;48.294;16.388;2023-04-22T06:17:27;99414.53;;;11.56;100.00
47726;BME280;33483;48.294;16.388;2023-04-22T06:19:57;99410.25;;;12.02;100.00
47726;BME280;33483;48.294;16.388;2023-04-22T06:22:24;99418.47;;;12.28;100.00
47726;BME280;33483;48.294;16.388;2023-04-22T06:24:54;99416.53;;;12.36;100.00
47726;BME280;33483;48.294;16.388;2023-04-22T06:27:22;99413.13;;;12.51;100.00
47726;BME280;33483;48.294;16.388;2023-04-22T06:29:49;99415.09;;;12.42;100.00
47726;BME280;33483;48.294;16.388;2023-04-22T06:32:17;99423.22;;;12.40;100.00
47726;BME280;33483;48.294;16.388;2023-04-22T06:34:44;99417.06;;;12.55;100.00
47726;BME280;33483;48.294;16.388;2023-04-22T06:37:14;99422.59;;;13.39;100.00
47726;BME280;33483;48.294;16.388;2023-04-22T06:39:43;99435.19;;;14.80;100.00
47726;BME280;33483;48.294;16.388;2023-04-22T06:42:33;99432.84;;;17.09;78.08
47726;BME280;33483;48.294;16.388;2023-04-22T06:45:36;99445.63;;;18.77;64.60
47726;BME280;33483;48.294;16.388;2023-04-22T06:48:26;99451.69;;;19.57;58.19
47726;BME280;33483;48.294;16.388;2023-04-22T06:51:25;99452.00;;;20.40;52.74
47726;BME280;33483;48.294;16.388;2023-04-22T06:53:53;99448.19;;;21.17;48.76
47726;BME280;33483;48.294;16.388;2023-04-22T06:56:22;99453.00;;;21.69;44.62
47726;BME280;33483;48.294;16.388;2023-04-22T06:58:49;99455.75;;;22.34;44.76
47726;BME280;33483;48.294;16.388;2023-04-22T07:01:16;99456.78;;;22.85;40.86
47726;BME280;33483;48.294;16.388;2023-04-22T07:03:47;99457.03;;;23.60;41.93
47726;BME280;33483;48.294;16.388;2023-04-22T07:06:19;99467.31;;;23.67;39.72
47726;BME280;33483;48.294;16.388;2023-04-22T07:08:47;99463.38;;;23.72;38.07
47726;BME280;33483;48.294;16.388;2023-04-22T07:11:14;99471.59;;;24.30;36.51
47726;BME280;33483;48.294;16.388;2023-04-22T07:13:54;99463.50;;;25.04;35.83
47726;BME280;33483;48.294;16.388;2023-04-22T07:16:21;99468.34;;;24.88;34.37
47726;BME280;33483;48.294;16.388;2023-04-22T07:18:48;99464.97;;;24.78;34.06
47726;BME280;33483;48.294;16.388;2023-04-22T07:21:19;99464.22;;;25.74;33.43
47726;BME280;33483;48.294;16.388;2023-04-22T07:23:46;99462.50;;;25.53;34.53
47726;BME280;33483;48.294;16.388;2023-04-22T07:26:15;99456.78;;;25.96;32.81
47726;BME280;33483;48.294;16.388;2023-04-22T07:28:43;99463.97;;;25.54;33.96
47726;BME280;33483;48.294;16.388;2023-04-22T07:31:10;99461.09;;;25.97;33.11
47726;BME280;33483;48.294;16.388;2023-04-22T07:33:37;99463.75;;;25.64;33.02
47726;BME280;33483;48.294;16.388;2023-04-22T07:36:06;99456.97;;;26.00;34.27
47726;BME280;33483;48.294;16.388;2023-04-22T07:38:34;99455.56;;;26.15;33.71
47726;BME280;33483;48.294;16.388;2023-04-22T07:41:02;99459.84;;;26.76;31.36
47726;BME280;33483;48.294;16.388;2023-04-22T07:43:29;99459.53;;;26.23;32.58
47726;BME280;33483;48.294;16.388;2023-04-22T07:45:56;99465.56;;;26.62;32.18
47726;BME280;33483;48.294;16.388;2023-04-22T07:48:27;99458.34;;;26.44;32.87
47726;BME280;33483;48.294;16.388;2023-04-22T07:50:57;99466.94;;;27.08;31.61
47726;BME280;33483;48.294;16.388;2023-04-22T07:53:27;99459.66;;;26.72;34.30
47726;BME280;33483;48.294;16.388;2023-04-22T07:55:54;99462.03;;;26.46;32.03
47726;BME280;33483;48.294;16.388;2023-04-22T07:58:22;99461.88;;;25.84;33.29
47726;BME280;33483;48.294;16.388;2023-04-22T08:00:49;99461.38;;;26.32;30.97
47726;BME280;33483;48.294;16.388;2023-04-22T08:03:18;99454.72;;;26.12;32.01
47726;BME280;33483;48.294;16.388;2023-04-22T08:05:45;99452.84;;;26.48;31.40
47726;BME280;33483;48.294;16.388;2023-04-22T08:08:13;99450.66;;;26.78;33.47
47726;BME280;33483;48.294;16.388;2023-04-22T08:10:41;99460.34;;;26.41;33.26
47726;BME280;33483;48.294;16.388;2023-04-22T08:13:11;99455.69;;;26.63;31.65
47726;BME280;33483;48.294;16.388;2023-04-22T08:15:38;99446.00;;;27.17;32.30
47726;BME280;33483;48.294;16.388;2023-04-22T08:18:06;99445.63;;;27.25;32.95
47726;BME280;33483;48.294;16.388;2023-04-22T08:20:33;99449.09;;;27.74;31.51
47726;BME280;33483;48.294;16.388;2023-04-22T08:23:03;99454.84;;;26.45;31.76
47726;BME280;33483;48.294;16.388;2023-04-22T08:25:30;99435.41;;;26.71;32.40
47726;BME280;33483;48.294;16.388;2023-04-22T08:27:57;99445.13;;;27.30;32.81
47726;BME280;33483;48.294;16.388;2023-04-22T08:30:25;99443.31;;;27.21;32.12
47726;BME280;33483;48.294;16.388;2023-04-22T08:32:53;99448.69;;;26.98;32.56
47726;BME280;33483;48.294;16.388;2023-04-22T08:35:20;99450.00;;;27.61;31.34
47726;BME280;33483;48.294;16.388;2023-04-22T08:37:50;99449.09;;;28.09;31.52
47726;BME280;33483;48.294;16.388;2023-04-22T08:40:17;99442.78;;;27.76;31.56
47726;BME280;33483;48.294;16.388;2023-04-22T08:42:45;99442.31;;;27.48;33.26
47726;BME280;33483;48.294;16.388;2023-04-22T08:45:12;99441.28;;;27.57;33.90
47726;BME280;33483;48.294;16.388;2023-04-22T08:47:40;99446.25;;;27.39;33.52
47726;BME280;33483;48.294;16.388;2023-04-22T08:50:08;99440.22;;;28.19;31.09
47726;BME280;33483;48.294;16.388;2023-04-22T08:52:36;99444.81;;;27.07;31.78
47726;BME280;33483;48.294;16.388;2023-04-22T08:55:03;99441.84;;;26.40;32.04
47726;BME280;33483;48.294;16.388;2023-04-22T08:57:30;99441.03;;;27.51;31.51
47726;BME280;33483;48.294;16.388;2023-04-22T08:59:58;99440.88;;;27.47;31.07
47726;BME280;33483;48.294;16.388;2023-04-22T09:02:25;99441.69;;;28.02;31.42
47726;BME280;33483;48.294;16.388;2023-04-22T09:04:53;99432.09;;;27.76;30.73
47726;BME280;33483;48.294;16.388;2023-04-22T09:07:24;99429.06;;;28.07;32.24
47726;BME280;33483;48.294;16.388;2023-04-22T09:09:53;99435.66;;;27.41;29.65
47726;BME280;33483;48.294;16.388;2023-04-22T09:12:21;99429.91;;;26.59;32.42
47726;BME280;33483;48.294;16.388;2023-04-22T09:14:50;99433.41;;;27.22;30.91
47726;BME280;33483;48.294;16.388;2023-04-22T09:17:24;99426.38;;;27.58;30.67
47726;BME280;33483;48.294;16.388;2023-04-22T09:19:58;99425.75;;;27.42;31.28
47726;BME280;33483;48.294;16.388;2023-04-22T09:22:27;99429.88;;;27.39;30.81
47726;BME280;33483;48.294;16.388;2023-04-22T09:24:54;99428.34;;;27.71;30.93
47726;BME280;33483;48.294;16.388;2023-04-22T09:27:23;99411.09;;;27.67;30.38
47726;BME280;33483;48.294;16.388;2023-04-22T09:29:53;99412.47;;;26.98;31.02
47726;BME280;33483;48.294;16.388;2023-04-22T09:32:23;99410.09;;;25.70;32.36
47726;BME280;33483;48.294;16.388;2023-04-22T09:34:51;99410.13;;;26.15;32.66
47726;BME280;33483;48.294;16.388;2023-04-22T09:37:19;99402.47;;;26.82;32.11
47726;BME280;33483;48.294;16.388;2023-04-22T09:39:47;99401.72;;;26.97;33.24
47726;BME280;33483;48.294;16.388;2023-04-22T09:42:16;99401.53;;;26.93;30.25
47726;BME280;33483;48.294;16.388;2023-04-22T09:44:47;99409.75;;;26.38;30.47
47726;BME280;33483;48.294;16.388;2023-04-22T09:47:15;99419.38;;;26.78;30.10
47726;BME280;33483;48.294;16.388;2023-04-22T09:49:46;99403.88;;;26.18;31.12
47726;BME280;33483;48.294;16.388;2023-04-22T09:52:24;99407.56;;;25.92;31.41
47726;BME280;33483;48.294;16.388;2023-04-22T09:54:53;99401.69;;;25.88;31.27
47726;BME280;33483;48.294;16.388;2023-04-22T09:57:20;99412.41;;;26.03;31.42
47726;BME280;33483;48.294;16.388;2023-04-22T09:59:51;99396.50;;;25.53;30.83
47726;BME280;33483;48.294;16.388;2023-04-22T10:02:26;99392.00;;;25.48;32.55
47726;BME280;33483;48.294;16.388;2023-04-22T10:04:54;99390.97;;;25.86;31.88
47726;BME280;33483;48.294;16.388;2023-04-22T10:07:23;99390.44;;;25.90;30.28
47726;BME280;33483;48.294;16.388;2023-04-22T10:09:50;99388.28;;;25.59;30.24
47726;BME280;33483;48.294;16.388;2023-04-22T10:12:17;99388.81;;;24.59;33.03
47726;BME280;33483;48.294;16.388;2023-04-22T10:14:59;99386.22;;;25.46;32.33
47726;BME280;33483;48.294;16.388;2023-04-22T10:17:27;99380.72;;;25.21;31.86
47726;BME280;33483;48.294;16.388;2023-04-22T10:19:55;99382.22;;;24.68;31.47
47726;BME280;33483;48.294;16.388;2023-04-22T10:22:23;99373.72;;;24.40;32.60
47726;BME280;33483;48.294;16.388;2023-04-22T10:24:50;99371.56;;;24.14;32.79
47726;BME280;33483;48.294;16.388;2023-04-22T10:27:21;99374.63;;;24.18;34.99
47726;BME280;33483;48.294;16.388;2023-04-22T10:29:51;99363.06;;;24.00;33.08
47726;BME280;33483;48.294;16.388;2023-04-22T10:34:46;99356.59;;;24.66;33.04
47726;BME280;33483;48.294;16.388;2023-04-22T10:37:17;99363.22;;;23.91;35.24
47726;BME280;33483;48.294;16.388;2023-04-22T10:40:04;99356.13;;;24.03;35.65
47726;BME280;33483;48.294;16.388;2023-04-22T10:42:32;99367.19;;;23.61;34.68
47726;BME280;33483;48.294;16.388;2023-04-22T10:45:00;99357.19;;;24.10;35.05
47726;BME280;33483;48.294;16.388;2023-04-22T10:47:32;99346.72;;;23.74;33.59
47726;BME280;33483;48.294;16.388;2023-04-22T10:52:54;99357.03;;;23.19;35.66
47726;BME280;33483;48.294;16.388;2023-04-22T10:55:22;99347.44;;;22.87;35.91
47726;BME280;33483;48.294;16.388;2023-04-22T10:57:50;99342.81;;;23.05;36.91
47726;BME280;33483;48.294;16.388;2023-04-22T11:03:08;99338.72;;;22.83;36.26
47726;BME280;33483;48.294;16.388;2023-04-22T11:05:36;99338.66;;;22.95;37.54
47726;BME280;33483;48.294;16.388;2023-04-22T11:10:32;99342.56;;;23.13;37.25
47726;BME280;33483;48.294;16.388;2023-04-22T11:13:04;99341.09;;;22.52;37.73
47726;BME280;33483;48.294;16.388;2023-04-22T11:15:35;99326.97;;;22.29;37.48
47726;BME280;33483;48.294;16.388;2023-04-22T11:18:06;99318.13;;;21.88;38.34
47726;BME280;33483;48.294;16.388;2023-04-22T11:20:34;99321.59;;;21.98;39.86
47726;BME280;33483;48.294;16.388;2023-04-22T11:23:04;99315.44;;;22.37;39.28
47726;BME280;33483;48.294;16.388;2023-04-22T11:25:31;99312.19;;;22.77;39.05
47726;BME280;33483;48.294;16.388;2023-04-22T11:27:58;99312.47;;;22.69;38.74
47726;BME280;33483;48.294;16.388;2023-04-22T11:30:26;99319.19;;;22.53;37.40
47726;BME280;33483;48.294;16.388;2023-04-22T11:32:55;99312.59;;;22.96;37.37
47726;BME280;33483;48.294;16.388;2023-04-22T11:35:25;99307.69;;;22.60;38.43
47726;BME280;33483;48.294;16.388;2023-04-22T11:38:04;99310.00;;;22.41;38.38
47726;BME280;33483;48.294;16.388;2023-04-22T11:40:35;99306.84;;;22.58;38.77
47726;BME280;33483;48.294;16.388;2023-04-22T11:43:08;99317.53;;;22.96;39.44
47726;BME280;33483;48.294;16.388;2023-04-22T11:45:36;99310.28;;;23.55;38.04
47726;BME280;33483;48.294;16.388;2023-04-22T11:48:04;99309.63;;;23.06;37.39
47726;BME280;33483;48.294;16.388;2023-04-22T11:50:33;99309.25;;;23.11;38.77
47726;BME280;33483;48.294;16.388;2023-04-22T11:53:02;99311.09;;;23.07;37.20
47726;BME280;33483;48.294;16.388;2023-04-22T11:55:33;99311.91;;;22.96;37.48
47726;BME280;33483;48.294;16.388;2023-04-22T11:58:08;99298.72;;;22.64;36.48
47726;BME280;33483;48.294;16.388;2023-04-22T12:03:04;99301.69;;;22.31;38.33
47726;BME280;33483;48.294;16.388;2023-04-22T12:08:07;99288.41;;;22.57;38.85
47726;BME280;33483;48.294;16.388;2023-04-22T12:10:39;99296.28;;;22.23;39.70
47726;BME280;33483;48.294;16.388;2023-04-22T12:13:07;99293.03;;;21.60;39.60
47726;BME280;33483;48.294;16.388;2023-04-22T12:15:38;99287.34;;;21.92;41.52
47726;BME280;33483;48.294;16.388;2023-04-22T12:18:06;99286.22;;;21.97;38.94
47726;BME280;33483;48.294;16.388;2023-04-22T12:20:40;99283.78;;;22.15;38.77
47726;BME280;33483;48.294;16.388;2023-04-22T12:23:11;99282.28;;;22.25;38.48
47726;BME280;33483;48.294;16.388;2023-04-22T12:25:40;99284.63;;;22.06;38.69
47726;BME280;33483;48.294;16.388;2023-04-22T12:28:10;99286.97;;;22.09;39.45
47726;BME280;33483;48.294;16.388;2023-04-22T12:30:37;99284.38;;;22.25;39.90
47726;BME280;33483;48.294;16.388;2023-04-22T12:33:05;99287.09;;;22.11;39.15
47726;BME280;33483;48.294;16.388;2023-04-22T12:35:32;99278.16;;;22.03;39.70
47726;BME280;33483;48.294;16.388;2023-04-22T12:38:02;99278.75;;;22.02;38.71
47726;BME280;33483;48.294;16.388;2023-04-22T12:40:30;99268.31;;;21.93;38.67
47726;BME280;33483;48.294;16.388;2023-04-22T12:42:59;99274.34;;;22.10;40.27
47726;BME280;33483;48.294;16.388;2023-04-22T12:45:26;99272.59;;;22.17;39.50
47726;BME280;33483;48.294;16.388;2023-04-22T12:47:54;99271.63;;;21.89;38.70
47726;BME280;33483;48.294;16.388;2023-04-22T12:50:21;99275.69;;;21.98;39.22
47726;BME280;33483;48.294;16.388;2023-04-22T12:52:49;99268.19;;;22.02;39.07
47726;BME280;33483;48.294;16.388;2023-04-22T12:55:18;99268.50;;;21.51;38.42
47726;BME280;33483;48.294;16.388;2023-04-22T12:57:48;99257.97;;;21.63;38.80
47726;BME280;33483;48.294;16.388;2023-04-22T13:00:23;99256.53;;;21.85;39.98
47726;BME280;33483;48.294;16.388;2023-04-22T13:02:51;99255.28;;;21.76;37.95
47726;BME280;33483;48.294;16.388;2023-04-22T13:05:21;99259.78;;;21.35;38.30
47726;BME280;33483;48.294;16.388;2023-04-22T13:07:50;99252.44;;;21.53;38.68
47726;BME280;33483;48.294;16.388;2023-04-22T13:10:33;99247.53;;;21.54;38.53
47726;BME280;33483;48.294;16.388;2023-04-22T13:13:00;99244.47;;;21.73;40.35
47726;BME280;33483;48.294;16.388;2023-04-22T13:15:33;99240.59;;;21.78;39.16
47726;BME280;33483;48.294;16.388;2023-04-22T13:18:03;99242.25;;;21.37;39.66
47726;BME280;33483;48.294;16.388;2023-04-22T13:20:30;99231.44;;;21.21;40.07
47726;BME280;33483;48.294;16.388;2023-04-22T13:23:00;99227.94;;;21.11;39.13